Time,TemperatureF,DewpointF,PressureIn,WindDirection,WindDirectionDegrees,WindSpeedMPH,WindSpeedGustMPH,Humidity,HourlyPrecipIn,Conditions,Clouds,dailyrainin,SoftwareType,DateUTC
2013-09-19 00:12:00,55.2,53.2,29.96,SSE,163,0.0,0.0,93,0.00,,,0.00,Wunderground v.1.15,2013-09-19 04:12:00,
2013-09-19 00:42:00,54.4,52.7,29.96,SSE,163,0.0,0.0,94,0.00,,,0.00,Wunderground v.1.15,2013-09-19 04:42:00,
2013-09-19 01:12:00,53.9,52.5,29.97,SSE,163,0.0,0.0,95,0.00,,,0.00,Wunderground v.1.15,2013-09-19 05:12:00,
2013-09-19 01:42:00,53.3,51.9,29.97,SSE,163,0.0,0.0,95,0.00,,,0.00,Wunderground v.1.15,2013-09-19 05:42:00,
2013-09-19 02:12:00,52.0,50.9,29.96,SSE,163,0.0,0.0,96,0.00,,,0.00,Wunderground v.1.15,2013-09-19 06:12:00,
2013-09-19 02:42:00,51.4,50.3,29.96,SSE,163,0.0,0.0,96,0.00,,,0.00,Wunderground v.1.15,2013-09-19 06:42:00,
2013-09-19 03:12:00,51.6,50.8,29.95,SSE,163,0.0,0.0,97,0.00,,,0.00,Wunderground v.1.15,2013-09-19 07:12:00,
2013-09-19 03:42:00,51.5,50.7,29.94,SSE,163,0.0,0.0,97,0.00,,,0.00,Wunderground v.1.15,2013-09-19 07:42:00,
2013-09-19 04:12:00,51.0,50.2,29.94,SSE,163,0.0,0.0,97,0.00,,,0.00,Wunderground v.1.15,2013-09-19 08:12:00,
2013-09-19 05:12:00,49.3,48.5,29.95,SSE,163,0.0,0.0,97,0.00,,,0.00,Wunderground v.1.15,2013-09-19 09:12:00,
2013-09-19 05:42:00,48.7,47.9,29.94,SSE,163,0.0,0.0,97,0.00,,,0.00,Wunderground v.1.15,2013-09-19 09:42:00,
2013-09-19 06:12:00,48.6,48.1,29.95,SSE,163,0.0,0.0,98,0.00,,,0.00,Wunderground v.1.15,2013-09-19 10:12:00,
2013-09-19 06:42:00,48.3,47.8,29.95,SSE,163,0.0,0.0,98,0.00,,,0.00,Wunderground v.1.15,2013-09-19 10:42:00,
2013-09-19 07:12:00,47.8,47.3,29.95,SSE,163,0.0,0.0,98,0.00,,,0.00,Wunderground v.1.15,2013-09-19 11:12:00,
2013-09-19 07:42:00,50.1,49.6,29.95,SSE,163,0.0,0.0,98,0.00,,,0.00,Wunderground v.1.15,2013-09-19 11:42:00,
2013-09-19 08:12:00,53.7,53.1,29.95,SSE,163,0.0,0.0,98,0.00,,,0.00,Wunderground v.1.15,2013-09-19 12:12:00,
2013-09-19 08:42:00,57.1,54.8,29.94,SSE,163,0.0,0.0,92,0.00,,,0.00,Wunderground v.1.15,2013-09-19 12:42:00,
2013-09-19 09:12:00,58.4,53.6,29.95,WSW,256,0.0,0.0,84,0.00,,,0.00,Wunderground v.1.15,2013-09-19 13:12:00,
2013-09-19 09:42:00,60.7,53.8,29.95,WSW,243,1.0,1.0,78,0.00,,,0.00,Wunderground v.1.15,2013-09-19 13:42:00,
2013-09-19 10:12:00,63.8,55.4,29.95,WSW,247,0.0,1.0,74,0.00,,,0.00,Wunderground v.1.15,2013-09-19 14:12:00,
2013-09-19 10:42:00,66.3,56.2,29.94,SSW,199,0.0,0.0,70,0.00,,,0.00,Wunderground v.1.15,2013-09-19 14:42:00,
2013-09-19 11:12:00,68.0,56.6,29.93,South,188,1.0,1.0,67,0.00,,,0.00,Wunderground v.1.15,2013-09-19 15:12:00,
2013-09-19 11:42:00,71.2,56.6,29.92,West,265,1.0,1.0,60,0.00,,,0.00,Wunderground v.1.15,2013-09-19 15:42:00,
2013-09-19 12:12:00,72.9,56.8,29.92,East,82,1.0,1.0,57,0.00,,,0.00,Wunderground v.1.15,2013-09-19 16:12:00,
2013-09-19 12:42:00,74.1,57.4,29.91,South,184,1.0,1.0,56,0.00,,,0.00,Wunderground v.1.15,2013-09-19 16:42:00,
2013-09-19 13:12:00,74.5,56.2,29.90,WSW,254,3.0,4.0,53,0.00,,,0.00,Wunderground v.1.15,2013-09-19 17:12:00,
2013-09-19 13:42:00,-999.9,-99.9,29.89,SW,219,1.0,1.0,51,0.00,,,0.00,Wunderground v.1.15,2013-09-19 17:42:00,
2013-09-19 14:12:00,-999.9,-99.9,29.89,SE,128,2.0,2.0,48,0.00,,,0.00,Wunderground v.1.15,2013-09-19 18:12:00,
2013-09-19 14:42:00,-999.9,-99.9,29.87,SW,234,2.0,2.0,49,0.00,,,0.00,Wunderground v.1.15,2013-09-19 18:42:00,
2013-09-19 15:12:00,-999.9,-99.9,29.86,South,173,3.0,3.0,47,0.00,,,0.00,Wunderground v.1.15,2013-09-19 19:12:00,
2013-09-19 15:42:00,-999.9,-99.9,29.85,West,272,2.0,2.0,48,0.00,,,0.00,Wunderground v.1.15,2013-09-19 19:42:00,
2013-09-19 16:12:00,-999.9,-99.9,29.85,SW,221,1.0,2.0,46,0.00,,,0.00,Wunderground v.1.15,2013-09-19 20:12:00,
2013-09-19 17:12:00,-999.9,-99.9,29.84,WSW,249,1.0,2.0,42,0.00,,,0.00,Wunderground v.1.15,2013-09-19 21:12:00,
2013-09-19 17:42:00,-999.9,-99.9,29.84,West,268,1.0,3.0,43,0.00,,,0.00,Wunderground v.1.15,2013-09-19 21:42:00,
2013-09-19 18:12:00,-999.9,-99.9,29.84,West,263,0.0,0.0,46,0.00,,,0.00,Wunderground v.1.15,2013-09-19 22:12:00,
2013-09-19 18:42:00,-999.9,-99.9,29.85,West,263,0.0,0.0,51,0.00,,,0.00,Wunderground v.1.15,2013-09-19 22:42:00,
2013-09-19 19:12:00,71.1,56.5,29.85,WSW,241,0.0,0.0,60,0.00,,,0.00,Wunderground v.1.15,2013-09-19 23:12:00,
2013-09-19 19:42:00,68.2,56.8,29.86,WSW,240,0.0,0.0,67,0.00,,,0.00,Wunderground v.1.15,2013-09-19 23:42:00,
2013-09-19 20:12:00,65.8,56.9,29.87,WSW,240,0.0,0.0,73,0.00,,,0.00,Wunderground v.1.15,2013-09-20 00:12:00,
2013-09-19 20:42:00,63.8,56.8,29.87,WSW,240,0.0,0.0,78,0.00,,,0.00,Wunderground v.1.15,2013-09-20 00:42:00,
2013-09-19 21:12:00,63.0,56.7,29.87,WSW,240,0.0,0.0,80,0.00,,,0.00,Wunderground v.1.15,2013-09-20 01:12:00,
2013-09-19 21:42:00,61.9,56.3,29.87,WSW,241,0.0,0.0,82,0.00,,,0.00,Wunderground v.1.15,2013-09-20 01:42:00,
2013-09-19 22:12:00,61.7,56.5,29.87,WSW,240,0.0,0.0,83,0.00,,,0.00,Wunderground v.1.15,2013-09-20 02:12:00,
2013-09-19 22:42:00,61.5,56.9,29.86,WSW,241,0.0,0.0,85,0.00,,,0.00,Wunderground v.1.15,2013-09-20 02:42:00,
2013-09-19 23:12:00,60.5,56.9,29.86,WSW,241,0.0,0.0,88,0.00,,,0.00,Wunderground v.1.15,2013-09-20 03:12:00,
2013-09-19 23:42:00,60.1,56.8,29.86,WSW,241,0.0,0.0,89,0.00,,,0.00,Wunderground v.1.15,2013-09-20 03:42:00,